Time;durP1;ratioP1;P1;durP2;ratioP2;P2;SDS_P1;SDS_P2;PMS_P1;PMS_P2;Temp;Humidity;BMP_temperature;BMP_pressure;BME280_temperature;BME280_humidity;BME280_pressure;Samples;Min_cycle;Max_cycle;Signal;HPM_P1;HPM_P2
2023/05/06 00:01:39;;;;;;;11.38;8.02;;;;;;;;;;5032110;27;89606;-68
2023/05/06 00:04:05;;;;;;;10.90;7.90;;;;;;;;;;5026596;27;88116;-68
2023/05/06 00:06:32;;;;;;;10.43;7.60;;;;;;;;;;5031487;28;88796;-68
2023/05/06 00:08:59;;;;;;;11.25;8.80;;;;;;;;;;5022926;27;88273;-71
2023/05/06 00:11:26;;;;;;;12.88;8.25;;;;;;;;;;5015418;28;90342;-68
2023/05/06 00:13:52;;;;;;;12.98;8.90;;;;;;;;;;5034085;28;88801;-68
2023/05/06 00:16:19;;;;;;;23.33;9.75;;;;;;;;;;5031239;27;88985;-68
2023/05/06 00:18:45;;;;;;;13.98;7.97;;;;;;;;;;5016819;28;88944;-68
2023/05/06 00:21:11;;;;;;;14.30;9.00;;;;;;;;;;5015718;28;90233;-68
2023/05/06 00:23:37;;;;;;;18.88;9.30;;;;;;;;;;5024453;27;89976;-68
2023/05/06 00:26:04;;;;;;;14.65;9.10;;;;;;;;;;5027337;28;88935;-68
2023/05/06 00:28:30;;;;;;;18.85;8.93;;;;;;;;;;4996753;28;89090;-68
2023/05/06 00:30:57;;;;;;;14.32;9.18;;;;;;;;;;5016449;28;88376;-68
2023/05/06 00:33:23;;;;;;;13.38;8.93;;;;;;;;;;5014856;28;88377;-69
2023/05/06 00:35:50;;;;;;;16.73;9.55;;;;;;;;;;5001599;28;88756;-68
2023/05/06 00:38:18;;;;;;;15.13;9.20;;;;;;;;;;4996949;28;88767;-68
2023/05/06 00:40:44;;;;;;;12.38;8.77;;;;;;;;;;5016064;28;89704;-68
2023/05/06 00:43:11;;;;;;;13.02;8.68;;;;;;;;;;5015836;28;89061;-68
2023/05/06 00:45:37;;;;;;;12.88;9.88;;;;;;;;;;5016051;28;88045;-68
2023/05/06 00:48:04;;;;;;;14.95;8.90;;;;;;;;;;5016377;28;90189;-68
2023/05/06 00:50:32;;;;;;;13.52;9.35;;;;;;;;;;5015990;28;89246;-68
2023/05/06 00:52:58;;;;;;;16.80;9.77;;;;;;;;;;5012839;28;88033;-68
2023/05/06 00:55:25;;;;;;;20.48;9.40;;;;;;;;;;5016733;28;88843;-68
2023/05/06 00:57:51;;;;;;;20.38;9.23;;;;;;;;;;5017350;28;88165;-68
2023/05/06 01:00:18;;;;;;;14.50;9.35;;;;;;;;;;5019624;28;88943;-68
2023/05/06 01:02:45;;;;;;;15.50;9.52;;;;;;;;;;5015665;28;91228;-68
2023/05/06 01:05:14;;;;;;;14.38;10.00;;;;;;;;;;5025325;28;88711;-68
2023/05/06 01:07:49;;;;;;;15.88;10.63;;;;;;;;;;5023724;27;90151;-68
2023/05/06 01:10:23;;;;;;;12.82;10.43;;;;;;;;;;5026272;28;89048;-69
2023/05/06 01:12:56;;;;;;;15.07;10.32;;;;;;;;;;5030467;27;91151;-68
2023/05/06 01:15:27;;;;;;;15.07;9.00;;;;;;;;;;5026805;27;89171;-68
2023/05/06 01:17:57;;;;;;;10.02;7.72;;;;;;;;;;5015566;28;88876;-68
2023/05/06 01:20:24;;;;;;;12.32;8.00;;;;;;;;;;5026250;28;87485;-68
2023/05/06 01:22:50;;;;;;;15.02;7.88;;;;;;;;;;5031389;27;89316;-68
2023/05/06 01:25:21;;;;;;;11.20;6.95;;;;;;;;;;5017844;27;88355;-68
2023/05/06 01:27:47;;;;;;;10.38;7.50;;;;;;;;;;5017721;28;89132;-68
2023/05/06 01:30:15;;;;;;;9.57;6.82;;;;;;;;;;5018977;28;88815;-68
2023/05/06 01:33:00;;;;;;;9.93;7.90;;;;;;;;;;5019199;28;88039;-68
2023/05/06 01:35:42;;;;;;;13.55;8.52;;;;;;;;;;5018646;28;88731;-68
2023/05/06 01:38:11;;;;;;;16.60;9.68;;;;;;;;;;5018791;28;88785;-68
2023/05/06 01:40:38;;;;;;;15.77;9.50;;;;;;;;;;5021753;28;89032;-68
2023/05/06 01:43:05;;;;;;;11.68;9.70;;;;;;;;;;5018624;28;89048;-69
2023/05/06 01:45:32;;;;;;;13.88;11.00;;;;;;;;;;5019076;28;87276;-68
2023/05/06 01:47:59;;;;;;;13.15;10.40;;;;;;;;;;5018023;28;89714;-68
2023/05/06 01:50:26;;;;;;;15.13;10.07;;;;;;;;;;5017119;28;89797;-68
2023/05/06 01:52:59;;;;;;;12.70;9.35;;;;;;;;;;5017557;28;89061;-68
2023/05/06 01:55:26;;;;;;;12.40;9.85;;;;;;;;;;5018348;28;90592;-68
2023/05/06 01:57:53;;;;;;;17.63;11.07;;;;;;;;;;5016878;28;90189;-68
2023/05/06 02:00:19;;;;;;;12.45;9.88;;;;;;;;;;5014077;28;89192;-69
2023/05/06 02:02:46;;;;;;;13.93;10.38;;;;;;;;;;5032354;27;88880;-68
2023/05/06 02:05:12;;;;;;;14.43;9.65;;;;;;;;;;5036452;27;89047;-68
2023/05/06 02:07:39;;;;;;;14.45;8.95;;;;;;;;;;5025546;27;88725;-68
2023/05/06 02:10:05;;;;;;;13.13;9.77;;;;;;;;;;5017999;28;88626;-68
2023/05/06 02:12:31;;;;;;;11.90;9.63;;;;;;;;;;5017640;27;88798;-69
2023/05/06 02:14:58;;;;;;;9.88;8.45;;;;;;;;;;5018920;28;88589;-68
2023/05/06 02:17:24;;;;;;;13.52;9.73;;;;;;;;;;5018217;28;89782;-68
2023/05/06 02:19:51;;;;;;;10.32;9.23;;;;;;;;;;5024692;28;89510;-68
2023/05/06 02:22:17;;;;;;;13.90;10.00;;;;;;;;;;5022359;28;88101;-68
2023/05/06 02:24:43;;;;;;;10.85;9.45;;;;;;;;;;5023418;27;90310;-68
2023/05/06 02:27:10;;;;;;;16.85;10.45;;;;;;;;;;5022981;28;88934;-68
2023/05/06 02:29:36;;;;;;;13.98;9.93;;;;;;;;;;5036951;27;89103;-69
2023/05/06 02:32:02;;;;;;;14.55;10.23;;;;;;;;;;5034521;27;90181;-69
2023/05/06 02:34:29;;;;;;;12.98;10.20;;;;;;;;;;5020800;27;89598;-68
2023/05/06 02:36:56;;;;;;;14.18;10.85;;;;;;;;;;5017020;28;89033;-68
2023/05/06 02:39:23;;;;;;;11.85;9.55;;;;;;;;;;5016629;28;91152;-68
2023/05/06 02:41:49;;;;;;;12.75;9.55;;;;;;;;;;5016534;28;89823;-68
2023/05/06 02:44:15;;;;;;;15.32;10.75;;;;;;;;;;5017546;28;88050;-68
2023/05/06 02:46:42;;;;;;;13.20;9.93;;;;;;;;;;5019889;28;89013;-68
2023/05/06 02:49:08;;;;;;;11.70;9.40;;;;;;;;;;5017454;28;89081;-68
2023/05/06 02:51:35;;;;;;;12.30;8.85;;;;;;;;;;5017588;28;88903;-68
2023/05/06 02:54:01;;;;;;;11.90;8.52;;;;;;;;;;5017575;28;89356;-68
2023/05/06 02:56:27;;;;;;;8.35;6.47;;;;;;;;;;5017585;28;89095;-68
2023/05/06 02:58:54;;;;;;;5.63;4.97;;;;;;;;;;5020834;28;89451;-68
2023/05/06 03:01:20;;;;;;;5.85;5.35;;;;;;;;;;5018516;28;88009;-68
2023/05/06 03:03:46;;;;;;;7.30;5.78;;;;;;;;;;5014739;28;90130;-68
2023/05/06 03:06:13;;;;;;;9.77;6.22;;;;;;;;;;5005630;28;89238;-68
2023/05/06 03:08:39;;;;;;;6.63;6.03;;;;;;;;;;5022666;28;89351;-68
2023/05/06 03:11:05;;;;;;;7.30;5.57;;;;;;;;;;5015129;28;88018;-68
2023/05/06 03:13:33;;;;;;;5.53;4.93;;;;;;;;;;5033348;27;89724;-68
2023/05/06 03:16:00;;;;;;;4.80;4.35;;;;;;;;;;5035586;27;89476;-69
2023/05/06 03:18:26;;;;;;;5.15;4.65;;;;;;;;;;5021153;28;88277;-68
2023/05/06 03:20:53;;;;;;;7.45;5.28;;;;;;;;;;5035825;27;89729;-68
2023/05/06 03:23:19;;;;;;;8.35;7.20;;;;;;;;;;5021286;27;88407;-68
2023/05/06 03:25:45;;;;;;;9.65;7.38;;;;;;;;;;5018540;28;88174;-68
2023/05/06 03:28:12;;;;;;;13.57;7.70;;;;;;;;;;5028008;28;88969;-68
2023/05/06 03:30:38;;;;;;;16.08;7.70;;;;;;;;;;5030419;27;88797;-68
2023/05/06 03:33:04;;;;;;;6.63;5.90;;;;;;;;;;5019418;28;89521;-68
2023/05/06 03:35:31;;;;;;;7.80;6.60;;;;;;;;;;5024013;27;88979;-68
2023/05/06 03:37:57;;;;;;;11.40;7.88;;;;;;;;;;5030496;28;88115;-68
2023/05/06 03:40:23;;;;;;;13.30;7.75;;;;;;;;;;5024649;27;88929;-68
2023/05/06 03:42:50;;;;;;;10.00;7.95;;;;;;;;;;5034029;28;90026;-68
2023/05/06 03:45:16;;;;;;;19.33;9.05;;;;;;;;;;5016083;27;88889;-68
2023/05/06 03:47:42;;;;;;;14.30;8.63;;;;;;;;;;5031676;28;88773;-68
2023/05/06 03:50:09;;;;;;;9.45;7.88;;;;;;;;;;5024204;27;89210;-68
2023/05/06 03:52:35;;;;;;;10.95;8.45;;;;;;;;;;4998841;27;88762;-68
2023/05/06 03:55:02;;;;;;;15.63;8.52;;;;;;;;;;5015252;28;90734;-68
2023/05/06 03:57:28;;;;;;;11.45;8.52;;;;;;;;;;5026740;28;88004;-69
2023/05/06 03:59:54;;;;;;;13.88;8.18;;;;;;;;;;5020014;27;88087;-68
2023/05/06 04:02:21;;;;;;;18.88;10.57;;;;;;;;;;5026577;28;90429;-69
2023/05/06 04:04:47;;;;;;;15.40;11.23;;;;;;;;;;5022321;27;89763;-68
2023/05/06 04:07:13;;;;;;;19.30;11.75;;;;;;;;;;5009759;28;90452;-68
2023/05/06 04:09:40;;;;;;;16.75;11.73;;;;;;;;;;5031780;27;89079;-68
2023/05/06 04:12:06;;;;;;;17.05;13.25;;;;;;;;;;5033940;27;90000;-68
2023/05/06 04:14:32;;;;;;;16.55;12.50;;;;;;;;;;5023194;27;89048;-68
2023/05/06 04:16:59;;;;;;;14.55;11.15;;;;;;;;;;5018303;28;91125;-68
2023/05/06 04:19:25;;;;;;;18.13;13.00;;;;;;;;;;5027067;28;90593;-68
2023/05/06 04:21:52;;;;;;;15.68;12.23;;;;;;;;;;5032506;27;89211;-68
2023/05/06 04:24:18;;;;;;;15.18;12.25;;;;;;;;;;5026706;27;89082;-68
2023/05/06 04:26:45;;;;;;;16.25;12.43;;;;;;;;;;5012926;28;89860;-68
2023/05/06 04:29:11;;;;;;;19.13;11.45;;;;;;;;;;5018784;27;89075;-68
2023/05/06 04:31:37;;;;;;;16.48;12.07;;;;;;;;;;5013448;28;90947;-69
2023/05/06 04:34:04;;;;;;;17.48;13.52;;;;;;;;;;5004955;28;88846;-68
2023/05/06 04:36:30;;;;;;;17.48;13.27;;;;;;;;;;5024930;27;90450;-68
2023/05/06 04:38:57;;;;;;;16.10;12.38;;;;;;;;;;5015516;28;89129;-68
2023/05/06 04:41:24;;;;;;;17.95;11.68;;;;;;;;;;5018638;27;90058;-68
2023/05/06 04:43:50;;;;;;;18.75;11.80;;;;;;;;;;5035103;27;89979;-68
2023/05/06 04:46:17;;;;;;;20.35;11.60;;;;;;;;;;5032003;27;89468;-68
2023/05/06 04:48:43;;;;;;;24.30;11.48;;;;;;;;;;5024280;28;89364;-68
2023/05/06 04:51:10;;;;;;;20.10;11.20;;;;;;;;;;5037346;28;91338;-68
2023/05/06 04:53:36;;;;;;;22.90;10.63;;;;;;;;;;5020761;28;91549;-68
2023/05/06 04:56:02;;;;;;;27.70;10.80;;;;;;;;;;5029451;28;89356;-68
2023/05/06 04:58:29;;;;;;;20.40;10.80;;;;;;;;;;5022295;27;90717;-68
2023/05/06 05:00:56;;;;;;;16.25;10.93;;;;;;;;;;5018813;28;89037;-68
2023/05/06 05:03:22;;;;;;;17.65;11.50;;;;;;;;;;5033330;27;90226;-68
2023/05/06 05:05:49;;;;;;;16.52;12.73;;;;;;;;;;5038363;27;89832;-69
2023/05/06 05:08:15;;;;;;;14.65;12.13;;;;;;;;;;5030790;27;91491;-68
2023/05/06 05:10:42;;;;;;;19.02;12.90;;;;;;;;;;5030060;27;88950;-68
2023/05/06 05:13:08;;;;;;;22.33;13.57;;;;;;;;;;5025219;27;90538;-68
2023/05/06 05:15:36;;;;;;;18.08;14.18;;;;;;;;;;5016762;28;89212;-69
2023/05/06 05:18:02;;;;;;;20.58;15.45;;;;;;;;;;5037586;27;91135;-68
2023/05/06 05:20:29;;;;;;;17.65;13.52;;;;;;;;;;5017831;28;89468;-68
2023/05/06 05:22:55;;;;;;;25.05;15.57;;;;;;;;;;5020835;27;91178;-68
2023/05/06 05:25:21;;;;;;;21.00;16.00;;;;;;;;;;5033998;27;90332;-68
2023/05/06 05:27:48;;;;;;;21.02;15.25;;;;;;;;;;5019655;28;89546;-68
2023/05/06 05:30:14;;;;;;;21.40;15.98;;;;;;;;;;5023110;28;90002;-68
2023/05/06 05:32:41;;;;;;;24.02;16.92;;;;;;;;;;5029325;27;90633;-68
2023/05/06 05:35:09;;;;;;;22.13;16.17;;;;;;;;;;5024554;27;89538;-68
2023/05/06 05:37:36;;;;;;;18.88;14.52;;;;;;;;;;5021104;27;90193;-68
2023/05/06 05:40:03;;;;;;;18.58;13.60;;;;;;;;;;5024003;27;89303;-68
2023/05/06 05:42:32;;;;;;;19.85;14.77;;;;;;;;;;5021239;28;92704;-68
2023/05/06 05:44:59;;;;;;;18.75;14.45;;;;;;;;;;5013725;28;90629;-68
2023/05/06 05:47:25;;;;;;;20.45;16.10;;;;;;;;;;5019418;28;89145;-69
2023/05/06 05:49:51;;;;;;;21.13;15.82;;;;;;;;;;5024501;27;90969;-69
2023/05/06 05:52:18;;;;;;;21.00;14.85;;;;;;;;;;5028767;28;90686;-68
2023/05/06 05:54:44;;;;;;;22.65;16.17;;;;;;;;;;5016698;28;90056;-68
2023/05/06 05:57:11;;;;;;;22.65;16.80;;;;;;;;;;5028630;28;91039;-67
2023/05/06 05:59:38;;;;;;;22.10;17.25;;;;;;;;;;5020821;28;90699;-68
2023/05/06 06:02:05;;;;;;;22.45;16.38;;;;;;;;;;5010081;28;90294;-68
2023/05/06 06:04:31;;;;;;;21.80;17.42;;;;;;;;;;5007528;28;89040;-68
2023/05/06 06:06:57;;;;;;;22.65;16.60;;;;;;;;;;5013723;28;89183;-70
2023/05/06 06:09:24;;;;;;;24.60;17.77;;;;;;;;;;5021821;28;90073;-68
2023/05/06 06:11:50;;;;;;;24.92;18.75;;;;;;;;;;5016872;28;90278;-68
2023/05/06 06:14:16;;;;;;;22.38;18.25;;;;;;;;;;5018145;28;89003;-68
2023/05/06 06:16:43;;;;;;;24.98;19.23;;;;;;;;;;5016883;28;90030;-68
2023/05/06 06:19:09;;;;;;;26.77;19.45;;;;;;;;;;5036980;27;89525;-68
2023/05/06 06:21:35;;;;;;;28.60;21.90;;;;;;;;;;5040222;27;90877;-68
2023/05/06 06:24:02;;;;;;;27.00;21.45;;;;;;;;;;5037555;27;90745;-68
2023/05/06 06:26:28;;;;;;;37.15;22.50;;;;;;;;;;5037185;27;89224;-68
2023/05/06 06:28:55;;;;;;;29.73;21.92;;;;;;;;;;5030323;27;91188;-69
2023/05/06 06:31:21;;;;;;;32.55;22.83;;;;;;;;;;5016976;28;89702;-69
2023/05/06 06:33:47;;;;;;;34.58;23.23;;;;;;;;;;5017007;28;89003;-69
2023/05/06 06:36:14;;;;;;;27.83;22.02;;;;;;;;;;5029034;28;90032;-68
2023/05/06 06:38:40;;;;;;;32.42;21.75;;;;;;;;;;5018624;27;89804;-69
2023/05/06 06:41:06;;;;;;;36.58;23.58;;;;;;;;;;5016644;28;89101;-68
2023/05/06 06:43:33;;;;;;;34.35;21.20;;;;;;;;;;5019918;28;91140;-68
2023/05/06 06:45:59;;;;;;;33.88;24.15;;;;;;;;;;5024790;28;89798;-68
2023/05/06 06:48:26;;;;;;;34.88;22.10;;;;;;;;;;5016054;28;89035;-69
2023/05/06 06:50:52;;;;;;;34.42;21.83;;;;;;;;;;5016521;28;89588;-68
2023/05/06 06:53:18;;;;;;;32.67;20.95;;;;;;;;;;5017416;28;91451;-68
2023/05/06 06:55:45;;;;;;;36.17;22.58;;;;;;;;;;5015876;28;91053;-68
2023/05/06 06:58:11;;;;;;;33.40;20.35;;;;;;;;;;5021811;28;90626;-68
2023/05/06 07:00:38;;;;;;;32.08;22.67;;;;;;;;;;5036768;27;90185;-68
2023/05/06 07:03:04;;;;;;;31.15;21.50;;;;;;;;;;5036141;27;90786;-68
2023/05/06 07:05:30;;;;;;;31.70;20.42;;;;;;;;;;5023082;27;89676;-68
2023/05/06 07:07:57;;;;;;;33.67;20.85;;;;;;;;;;5016340;28;90118;-69
2023/05/06 07:10:23;;;;;;;33.17;21.27;;;;;;;;;;5032105;28;89103;-70
2023/05/06 07:12:50;;;;;;;32.70;21.77;;;;;;;;;;5036549;27;89145;-68
2023/05/06 07:15:16;;;;;;;32.10;22.40;;;;;;;;;;5030108;28;90057;-68
2023/05/06 07:17:42;;;;;;;40.20;20.98;;;;;;;;;;5022002;27;90377;-67
2023/05/06 07:20:09;;;;;;;29.75;20.48;;;;;;;;;;5016438;28;89081;-68
2023/05/06 07:22:35;;;;;;;31.90;20.52;;;;;;;;;;5010698;28;90062;-68
2023/05/06 07:25:02;;;;;;;26.58;19.85;;;;;;;;;;5025487;27;89181;-68
2023/05/06 07:27:29;;;;;;;29.83;20.52;;;;;;;;;;5037742;27;89010;-68
2023/05/06 07:29:56;;;;;;;29.92;19.73;;;;;;;;;;5035352;27;88950;-68
2023/05/06 07:32:22;;;;;;;29.83;20.95;;;;;;;;;;5014427;28;89074;-68
2023/05/06 07:34:48;;;;;;;25.80;19.55;;;;;;;;;;5015556;28;89989;-68
2023/05/06 07:37:14;;;;;;;27.30;19.80;;;;;;;;;;5015999;28;89075;-69
2023/05/06 07:39:42;;;;;;;32.58;21.73;;;;;;;;;;5017506;28;90123;-68
2023/05/06 07:42:11;;;;;;;27.35;20.60;;;;;;;;;;5008290;28;90240;-68
2023/05/06 07:44:38;;;;;;;35.23;21.87;;;;;;;;;;5007444;27;90803;-68
2023/05/06 07:47:04;;;;;;;31.05;21.52;;;;;;;;;;5008832;28;90039;-68
2023/05/06 07:49:33;;;;;;;30.63;21.25;;;;;;;;;;5015598;28;89363;-68
2023/05/06 07:51:59;;;;;;;32.53;21.35;;;;;;;;;;5014497;28;88996;-68
2023/05/06 07:54:25;;;;;;;32.33;20.95;;;;;;;;;;5013843;28;90022;-68
2023/05/06 07:56:52;;;;;;;32.92;21.25;;;;;;;;;;5025614;28;90585;-70
2023/05/06 07:59:18;;;;;;;28.00;20.63;;;;;;;;;;5029260;27;89716;-69
2023/05/06 08:01:44;;;;;;;29.73;22.10;;;;;;;;;;5032860;27;90768;-69
2023/05/06 08:04:11;;;;;;;28.77;20.70;;;;;;;;;;5013710;28;89737;-68
2023/05/06 08:06:37;;;;;;;34.75;21.17;;;;;;;;;;5021087;28;90196;-69
2023/05/06 08:09:04;;;;;;;31.08;22.45;;;;;;;;;;5036710;27;90098;-69
2023/05/06 08:11:30;;;;;;;33.10;21.40;;;;;;;;;;5035456;27;88796;-69
2023/05/06 08:13:56;;;;;;;38.70;22.23;;;;;;;;;;5021486;27;90106;-70
2023/05/06 08:16:23;;;;;;;33.17;22.23;;;;;;;;;;5005940;28;90904;-69
2023/05/06 08:18:50;;;;;;;36.17;23.15;;;;;;;;;;5023266;28;89019;-68
2023/05/06 08:21:17;;;;;;;34.17;22.27;;;;;;;;;;5039523;27;91048;-68
2023/05/06 08:23:43;;;;;;;35.15;22.45;;;;;;;;;;5022202;27;90925;-68
2023/05/06 08:26:09;;;;;;;40.60;22.05;;;;;;;;;;5019124;28;89029;-68
2023/05/06 08:28:36;;;;;;;34.28;22.02;;;;;;;;;;5014202;28;92554;-68
2023/05/06 08:31:02;;;;;;;34.15;22.65;;;;;;;;;;5030606;27;89249;-68
2023/05/06 08:33:29;;;;;;;35.20;22.63;;;;;;;;;;5019755;27;90095;-68
2023/05/06 08:35:56;;;;;;;36.28;22.70;;;;;;;;;;5037026;28;90068;-68
2023/05/06 08:38:24;;;;;;;32.15;21.75;;;;;;;;;;5029105;27;93501;-68
2023/05/06 08:40:51;;;;;;;29.55;21.98;;;;;;;;;;5012217;28;91776;-68
2023/05/06 08:43:19;;;;;;;35.67;20.10;;;;;;;;;;5015854;28;92913;-68
2023/05/06 08:45:45;;;;;;;33.33;21.75;;;;;;;;;;5011327;27;93656;-68
2023/05/06 08:48:12;;;;;;;31.10;20.17;;;;;;;;;;5018696;28;94998;-68
2023/05/06 08:50:40;;;;;;;30.52;20.80;;;;;;;;;;5017510;28;98232;-68
2023/05/06 08:53:13;;;;;;;26.70;18.60;;;;;;;;;;5031596;28;93237;-68
2023/05/06 08:55:41;;;;;;;30.60;21.02;;;;;;;;;;5024271;27;93167;-69
2023/05/06 08:58:09;;;;;;;34.40;20.27;;;;;;;;;;5035628;27;94184;-71
2023/05/06 09:00:36;;;;;;;31.35;21.23;;;;;;;;;;5024845;27;92459;-69
2023/05/06 09:03:02;;;;;;;26.60;19.58;;;;;;;;;;5015083;28;93534;-69
2023/05/06 09:05:29;;;;;;;28.67;19.38;;;;;;;;;;5013166;28;92802;-69
2023/05/06 09:07:55;;;;;;;28.15;19.70;;;;;;;;;;5015435;28;92421;-70
2023/05/06 09:10:21;;;;;;;29.83;20.35;;;;;;;;;;5015685;28;94202;-69
2023/05/06 09:12:48;;;;;;;31.65;19.70;;;;;;;;;;5013776;28;96343;-69
2023/05/06 09:15:15;;;;;;;29.63;19.30;;;;;;;;;;5034085;28;92422;-69
2023/05/06 09:17:41;;;;;;;28.98;20.52;;;;;;;;;;5015544;28;93568;-69
2023/05/06 09:20:10;;;;;;;26.58;19.70;;;;;;;;;;5015663;28;92565;-69
2023/05/06 09:22:37;;;;;;;28.92;19.90;;;;;;;;;;5015196;28;93211;-69
2023/05/06 09:25:03;;;;;;;35.10;19.52;;;;;;;;;;5014666;28;93615;-69
2023/05/06 09:27:31;;;;;;;28.25;18.73;;;;;;;;;;5015654;28;92642;-69
2023/05/06 09:29:58;;;;;;;27.42;18.98;;;;;;;;;;5016019;28;93212;-69
2023/05/06 09:32:25;;;;;;;29.92;17.65;;;;;;;;;;5015290;28;94895;-69
2023/05/06 09:34:51;;;;;;;32.78;17.73;;;;;;;;;;5015172;28;92471;-69
2023/05/06 09:37:19;;;;;;;21.17;16.13;;;;;;;;;;5017215;28;94722;-69
2023/05/06 09:39:46;;;;;;;28.00;16.40;;;;;;;;;;5014919;28;92738;-69
2023/05/06 09:42:12;;;;;;;21.50;14.50;;;;;;;;;;5015266;28;93212;-69
2023/05/06 09:44:38;;;;;;;24.05;15.85;;;;;;;;;;5014998;28;94758;-69
2023/05/06 09:47:05;;;;;;;29.30;15.82;;;;;;;;;;5024872;28;92410;-69
2023/05/06 09:49:32;;;;;;;29.73;15.40;;;;;;;;;;5035106;27;93187;-69
2023/05/06 09:51:59;;;;;;;23.30;15.48;;;;;;;;;;5035331;27;94384;-69
2023/05/06 09:54:25;;;;;;;31.13;17.05;;;;;;;;;;5035314;27;91799;-69
2023/05/06 09:56:52;;;;;;;24.23;14.88;;;;;;;;;;5038196;27;92716;-69
2023/05/06 09:59:18;;;;;;;21.95;13.80;;;;;;;;;;5034969;27;92434;-69
2023/05/06 10:01:45;;;;;;;21.50;13.15;;;;;;;;;;5033308;27;94870;-69
2023/05/06 10:04:12;;;;;;;22.10;14.13;;;;;;;;;;5033625;27;94679;-71
2023/05/06 10:06:39;;;;;;;21.88;14.77;;;;;;;;;;5035158;27;92438;-69
2023/05/06 10:09:06;;;;;;;24.67;16.42;;;;;;;;;;5034958;28;94285;-69
2023/05/06 10:11:33;;;;;;;29.52;16.52;;;;;;;;;;5034945;27;93487;-69
2023/05/06 10:14:00;;;;;;;25.95;15.40;;;;;;;;;;5034624;27;92439;-69
2023/05/06 10:16:26;;;;;;;28.25;16.33;;;;;;;;;;5030122;27;93219;-71
2023/05/06 10:18:54;;;;;;;22.67;14.80;;;;;;;;;;5018191;28;92683;-69
2023/05/06 10:21:26;;;;;;;19.00;11.32;;;;;;;;;;5014477;28;92658;-69
2023/05/06 10:23:55;;;;;;;17.38;10.60;;;;;;;;;;5014341;28;93711;-69
2023/05/06 10:26:21;;;;;;;19.35;9.38;;;;;;;;;;5012663;28;94877;-69
2023/05/06 10:28:49;;;;;;;16.52;7.57;;;;;;;;;;5013854;28;95556;-68
2023/05/06 10:31:15;;;;;;;15.95;8.40;;;;;;;;;;5013734;28;95966;-69
2023/05/06 10:33:44;;;;;;;13.98;7.80;;;;;;;;;;5029233;27;94332;-69
2023/05/06 10:36:17;;;;;;;15.77;7.18;;;;;;;;;;5018353;27;92794;-68
2023/05/06 10:38:45;;;;;;;12.98;7.30;;;;;;;;;;5020056;27;93691;-70
2023/05/06 10:41:11;;;;;;;12.15;6.75;;;;;;;;;;5010308;28;92570;-70
2023/05/06 10:43:38;;;;;;;96.05;12.93;;;;;;;;;;5027764;27;93794;-70
2023/05/06 10:46:08;;;;;;;11.68;7.60;;;;;;;;;;5014119;28;92597;-72
2023/05/06 10:48:35;;;;;;;25.70;8.43;;;;;;;;;;5012430;28;92621;-70
2023/05/06 10:51:27;;;;;;;12.18;7.80;;;;;;;;;;5010744;28;99416;-68
2023/05/06 10:54:05;;;;;;;14.18;8.65;;;;;;;;;;5027349;27;94274;-68
2023/05/06 10:56:38;;;;;;;14.48;8.40;;;;;;;;;;5027967;27;93154;-69
2023/05/06 10:59:09;;;;;;;12.25;7.57;;;;;;;;;;5022688;28;93447;-69
2023/05/06 11:01:37;;;;;;;14.10;7.38;;;;;;;;;;5027903;27;93655;-69
2023/05/06 11:04:04;;;;;;;14.30;7.53;;;;;;;;;;5037879;27;93133;-68
2023/05/06 11:06:33;;;;;;;14.60;7.53;;;;;;;;;;5033795;27;92615;-69
2023/05/06 11:09:00;;;;;;;14.80;8.10;;;;;;;;;;5029939;28;94223;-69
2023/05/06 11:11:45;;;;;;;17.48;7.00;;;;;;;;;;5029587;27;93437;-69
2023/05/06 11:14:15;;;;;;;10.00;6.78;;;;;;;;;;5029553;27;92522;-70
2023/05/06 11:16:45;;;;;;;14.45;7.50;;;;;;;;;;5012520;28;94856;-69
2023/05/06 11:19:17;;;;;;;12.27;7.13;;;;;;;;;;5013028;28;93363;-68
2023/05/06 11:21:43;;;;;;;10.43;8.05;;;;;;;;;;5014363;28;92541;-68
2023/05/06 11:24:10;;;;;;;7.90;5.43;;;;;;;;;;5013844;28;93179;-68
2023/05/06 11:26:38;;;;;;;11.38;5.35;;;;;;;;;;5016813;28;93306;-68
2023/05/06 11:29:06;;;;;;;12.02;5.93;;;;;;;;;;5022485;27;93281;-68
2023/05/06 11:31:39;;;;;;;10.73;5.07;;;;;;;;;;5023021;28;93569;-68
2023/05/06 11:34:07;;;;;;;7.97;5.53;;;;;;;;;;5014429;28;91758;-68
2023/05/06 11:36:36;;;;;;;12.00;5.45;;;;;;;;;;5012293;28;92645;-69
2023/05/06 11:39:05;;;;;;;11.82;6.82;;;;;;;;;;5001908;28;94224;-68
2023/05/06 11:41:31;;;;;;;12.32;6.13;;;;;;;;;;5016594;27;94884;-69
2023/05/06 11:43:57;;;;;;;15.45;5.68;;;;;;;;;;5011870;27;95537;-70
2023/05/06 11:46:28;;;;;;;12.13;5.10;;;;;;;;;;5023010;28;93507;-71
2023/05/06 11:48:54;;;;;;;8.70;5.05;;;;;;;;;;5016234;28;92426;-70
2023/05/06 11:51:21;;;;;;;7.22;5.18;;;;;;;;;;5017433;28;93769;-68
2023/05/06 11:53:47;;;;;;;9.40;5.35;;;;;;;;;;5021944;27;92486;-72
2023/05/06 11:56:13;;;;;;;7.43;3.30;;;;;;;;;;5001760;28;93068;-70
2023/05/06 11:58:40;;;;;;;12.75;4.80;;;;;;;;;;5007720;28;92729;-70
2023/05/06 12:01:06;;;;;;;7.25;5.60;;;;;;;;;;5028769;27;92794;-70
2023/05/06 12:03:32;;;;;;;9.55;6.07;;;;;;;;;;5034321;27;94157;-71
2023/05/06 12:05:59;;;;;;;12.10;6.00;;;;;;;;;;5025552;27;96142;-69
2023/05/06 12:08:28;;;;;;;11.80;6.13;;;;;;;;;;5035620;27;92516;-69
2023/05/06 12:10:57;;;;;;;9.82;6.43;;;;;;;;;;5012744;28;93972;-69
2023/05/06 12:13:23;;;;;;;8.52;6.45;;;;;;;;;;5013859;27;92493;-68
2023/05/06 12:15:52;;;;;;;11.95;6.63;;;;;;;;;;5004190;28;94802;-68
2023/05/06 12:18:18;;;;;;;12.80;7.25;;;;;;;;;;5013808;28;93613;-69
2023/05/06 12:20:46;;;;;;;14.57;8.00;;;;;;;;;;5011320;28;92894;-67
2023/05/06 12:23:13;;;;;;;15.23;8.27;;;;;;;;;;5022159;27;93176;-67
2023/05/06 12:25:40;;;;;;;14.00;8.65;;;;;;;;;;5013423;28;93651;-68
2023/05/06 12:28:19;;;;;;;14.27;8.95;;;;;;;;;;5013239;28;92496;-69
2023/05/06 12:30:46;;;;;;;13.30;9.13;;;;;;;;;;5013296;28;94896;-68
2023/05/06 12:33:12;;;;;;;13.45;7.32;;;;;;;;;;5022012;28;92500;-68
2023/05/06 12:35:39;;;;;;;17.48;8.48;;;;;;;;;;5032452;28;94377;-71
2023/05/06 12:38:07;;;;;;;14.32;7.88;;;;;;;;;;5033424;27;93069;-68
2023/05/06 12:40:33;;;;;;;9.65;6.90;;;;;;;;;;4993127;28;94131;-69
2023/05/06 12:42:59;;;;;;;10.93;7.15;;;;;;;;;;5031265;28;93168;-68
2023/05/06 12:45:26;;;;;;;16.83;8.70;;;;;;;;;;5032882;27;93521;-69
2023/05/06 12:47:56;;;;;;;15.90;8.27;;;;;;;;;;5016839;28;92491;-69
2023/05/06 12:50:22;;;;;;;;;;;;;;;;;;5008047;28;92623;-69
2023/05/06 12:52:48;;;;;;;15.45;7.70;;;;;;;;;;5020613;28;123985;-68
2023/05/06 12:55:15;;;;;;;10.75;7.22;;;;;;;;;;5029263;27;94989;-69
2023/05/06 12:57:41;;;;;;;13.63;7.50;;;;;;;;;;5008771;28;92670;-71
2023/05/06 13:00:08;;;;;;;9.60;6.95;;;;;;;;;;5003405;28;92584;-69
2023/05/06 13:02:35;;;;;;;12.60;6.32;;;;;;;;;;5017618;28;92598;-70
2023/05/06 13:05:02;;;;;;;9.52;5.80;;;;;;;;;;5012928;28;94441;-70
2023/05/06 13:07:28;;;;;;;17.40;6.72;;;;;;;;;;5006072;28;92541;-70
2023/05/06 13:09:54;;;;;;;9.50;4.90;;;;;;;;;;5017999;28;93079;-68
2023/05/06 13:12:21;;;;;;;7.63;5.15;;;;;;;;;;5038031;27;94083;-70
2023/05/06 13:14:47;;;;;;;9.25;4.75;;;;;;;;;;5040852;27;92377;-68
2023/05/06 13:17:13;;;;;;;10.70;4.60;;;;;;;;;;5016434;27;94882;-69
2023/05/06 13:19:40;;;;;;;7.32;4.03;;;;;;;;;;5027100;27;96236;-68
2023/05/06 13:22:07;;;;;;;7.15;4.35;;;;;;;;;;5037988;27;95830;-69
2023/05/06 13:24:33;;;;;;;7.93;4.50;;;;;;;;;;5029762;27;93259;-68
2023/05/06 13:26:59;;;;;;;12.93;4.47;;;;;;;;;;5037779;27;92783;-70
2023/05/06 13:29:27;;;;;;;7.78;3.97;;;;;;;;;;5042534;27;93154;-67
2023/05/06 13:31:53;;;;;;;5.88;3.92;;;;;;;;;;5047887;28;92441;-68
2023/05/06 13:34:19;;;;;;;17.77;5.22;;;;;;;;;;5057135;27;92411;-70
2023/05/06 13:36:48;;;;;;;8.45;4.55;;;;;;;;;;5064064;27;91876;-70
2023/05/06 13:39:15;;;;;;;9.02;4.18;;;;;;;;;;5044459;27;92289;-70
2023/05/06 13:41:41;;;;;;;7.90;4.07;;;;;;;;;;5036529;28;92329;-68
2023/05/06 13:44:09;;;;;;;4.32;3.08;;;;;;;;;;5026919;28;95025;-67
2023/05/06 13:46:35;;;;;;;8.07;3.33;;;;;;;;;;5012669;28;92463;-67
2023/05/06 13:49:01;;;;;;;6.20;3.30;;;;;;;;;;5036126;28;93071;-68
2023/05/06 13:51:31;;;;;;;5.55;3.30;;;;;;;;;;5006067;28;92643;-66
2023/05/06 13:53:57;;;;;;;6.53;4.00;;;;;;;;;;5029265;28;92491;-67
2023/05/06 13:56:24;;;;;;;7.70;3.22;;;;;;;;;;5038116;28;92354;-68
2023/05/06 13:58:52;;;;;;;4.85;3.53;;;;;;;;;;5038771;28;92423;-67
2023/05/06 14:01:24;;;;;;;6.47;2.92;;;;;;;;;;5036737;27;91929;-67
2023/05/06 14:03:51;;;;;;;5.47;2.83;;;;;;;;;;5057206;27;92957;-68
2023/05/06 14:06:18;;;;;;;8.52;2.67;;;;;;;;;;5048667;27;92336;-68
2023/05/06 14:08:44;;;;;;;9.35;3.70;;;;;;;;;;5035512;27;95526;-68
2023/05/06 14:11:10;;;;;;;3.85;2.60;;;;;;;;;;5032223;28;94768;-68
2023/05/06 14:13:38;;;;;;;7.30;3.00;;;;;;;;;;5025114;27;92571;-67
2023/05/06 14:16:04;;;;;;;4.85;2.95;;;;;;;;;;5018264;28;93564;-68
2023/05/06 14:18:31;;;;;;;8.20;3.42;;;;;;;;;;5016832;28;96545;-68
2023/05/06 14:20:57;;;;;;;6.00;2.72;;;;;;;;;;5017500;27;96134;-70
2023/05/06 14:23:24;;;;;;;8.65;2.97;;;;;;;;;;5026536;28;93865;-68
2023/05/06 14:25:50;;;;;;;6.22;2.70;;;;;;;;;;5010872;27;91791;-68